createdAt,value
2023-05-02T00:01:06.323Z,39.67
2023-05-02T00:05:22.532Z,38.95
2023-05-02T00:09:38.956Z,38.59
2023-05-02T00:13:55.317Z,41.77
2023-05-02T00:18:12.108Z,41.19
2023-05-02T00:22:28.600Z,41.69
2023-05-02T00:26:44.922Z,38.88
2023-05-02T00:31:01.308Z,38.02
2023-05-02T00:35:17.701Z,37.79
2023-05-02T00:39:36.143Z,37.44
2023-05-02T00:43:52.513Z,38.37
2023-05-02T00:48:10.013Z,37.31
2023-05-02T00:52:26.782Z,36.26
2023-05-02T00:56:43.132Z,41.42
2023-05-02T01:01:16.899Z,38.09
2023-05-02T01:05:47.263Z,37.28
2023-05-02T01:10:23.310Z,36.76
2023-05-02T01:14:45.124Z,36.81
2023-05-02T01:19:02.215Z,36.51
2023-05-02T01:23:44.990Z,45.76
2023-05-02T01:28:23.694Z,46.10
2023-05-02T01:32:42.109Z,44.47
2023-05-02T01:36:59.647Z,43.37
2023-05-02T01:41:16.357Z,41.04
2023-05-02T01:45:34.193Z,43.67
2023-05-02T01:49:50.619Z,44.22
2023-05-02T01:54:09.184Z,45.67
2023-05-02T01:58:27.522Z,47.42
2023-05-02T02:02:44.884Z,48.41
2023-05-02T02:07:07.974Z,47.46
2023-05-02T02:11:36.005Z,47.39
2023-05-02T02:15:54.068Z,44.24
2023-05-02T02:20:12.800Z,42.38
2023-05-02T02:24:29.331Z,38.79
2023-05-02T02:28:46.241Z,37.80
2023-05-02T02:33:02.460Z,37.37
2023-05-02T02:37:30.444Z,36.73
2023-05-02T02:42:08.493Z,36.76
2023-05-02T02:46:34.695Z,36.45
2023-05-02T02:51:16.235Z,36.45
2023-05-02T02:55:48.018Z,36.62
2023-05-02T03:00:22.245Z,36.32
2023-05-02T03:04:46.189Z,36.97
2023-05-02T03:09:02.619Z,37.46
2023-05-02T03:13:18.839Z,37.46
2023-05-02T03:17:35.121Z,39.35
2023-05-02T03:21:51.389Z,39.87
2023-05-02T03:26:07.750Z,40.45
2023-05-02T03:30:24.079Z,40.68
2023-05-02T03:34:42.002Z,39.73
2023-05-02T03:38:58.368Z,40.58
2023-05-02T03:43:14.784Z,40.06
2023-05-02T03:47:31.009Z,38.08
2023-05-02T03:51:47.347Z,37.61
2023-05-02T03:56:03.596Z,37.98
2023-05-02T04:00:19.968Z,37.63
2023-05-02T04:04:36.596Z,37.72
2023-05-02T04:08:52.909Z,37.57
2023-05-02T04:13:09.224Z,37.66
2023-05-02T04:17:25.545Z,37.43
2023-05-02T04:21:41.924Z,37.60
2023-05-02T04:25:58.263Z,37.89
2023-05-02T04:30:14.760Z,37.43
2023-05-02T04:34:31.031Z,38.00
2023-05-02T04:38:47.305Z,37.49
2023-05-02T04:43:03.574Z,37.59
2023-05-02T04:47:19.810Z,37.90
2023-05-02T04:51:36.109Z,37.88
2023-05-02T04:55:52.451Z,38.09
2023-05-02T05:00:09.330Z,37.88
2023-05-02T05:04:25.944Z,38.07
2023-05-02T05:08:42.461Z,38.51
2023-05-02T05:12:58.672Z,38.47
2023-05-02T05:17:15.058Z,38.05
2023-05-02T05:21:31.321Z,37.72
2023-05-02T05:25:47.746Z,37.53
2023-05-02T05:30:04.749Z,37.74
2023-05-02T05:34:21.324Z,38.87
2023-05-02T05:38:37.954Z,38.02
2023-05-02T05:42:54.233Z,39.04
2023-05-02T05:47:10.664Z,38.17
2023-05-02T05:51:28.105Z,39.15
2023-05-02T05:55:44.449Z,38.63
2023-05-02T06:00:01.032Z,38.26
2023-05-02T06:04:17.696Z,37.82
2023-05-02T06:08:33.941Z,39.70
2023-05-02T06:12:50.292Z,38.34
2023-05-02T06:17:06.868Z,40.81
2023-05-02T06:21:23.156Z,38.40
2023-05-02T06:25:39.710Z,38.21
2023-05-02T06:29:56.017Z,37.42
2023-05-02T06:34:12.280Z,36.83
2023-05-02T06:38:28.633Z,36.92
2023-05-02T06:42:44.950Z,35.16
2023-05-02T06:47:01.408Z,36.49
2023-05-02T06:51:19.640Z,35.90
2023-05-02T06:55:35.856Z,34.81
2023-05-02T06:59:52.218Z,34.74
2023-05-02T07:04:08.433Z,35.65
2023-05-02T07:08:24.774Z,34.35
2023-05-02T07:12:41.331Z,34.13
2023-05-02T07:16:57.814Z,33.49
2023-05-02T07:21:14.601Z,33.71
2023-05-02T07:25:30.901Z,33.13
2023-05-02T07:29:47.101Z,34.22
2023-05-02T07:34:03.326Z,34.21
2023-05-02T07:38:19.602Z,33.03
2023-05-02T07:42:36.502Z,33.03
2023-05-02T07:46:53.692Z,35.01
2023-05-02T07:51:13.739Z,33.94
2023-05-02T07:55:31.550Z,33.99
2023-05-02T07:59:48.223Z,33.73
2023-05-02T08:04:07.600Z,34.79
2023-05-02T08:08:24.220Z,34.11
2023-05-02T08:12:41.678Z,34.42
2023-05-02T08:16:58.349Z,33.84
2023-05-02T08:21:14.581Z,33.30
2023-05-02T08:25:30.829Z,34.60
2023-05-02T08:29:46.988Z,33.39
2023-05-02T08:34:03.186Z,34.57
2023-05-02T08:38:19.322Z,33.52
2023-05-02T08:42:36.013Z,33.23
2023-05-02T08:46:52.723Z,34.39
2023-05-02T08:51:16.299Z,33.38
2023-05-02T08:55:33.223Z,33.79
2023-05-02T08:59:50.160Z,33.39
2023-05-02T09:04:06.619Z,33.97
2023-05-02T09:08:24.572Z,33.33
2023-05-02T09:12:41.096Z,33.43
2023-05-02T09:17:03.934Z,34.03
2023-05-02T09:21:25.586Z,33.58
2023-05-02T09:25:41.984Z,34.10
2023-05-02T09:30:30.571Z,32.94
2023-05-02T09:35:06.339Z,32.76
2023-05-02T09:39:29.382Z,31.99
2023-05-02T09:43:55.122Z,31.92
2023-05-02T09:48:12.359Z,32.61
2023-05-02T09:52:28.610Z,32.47
2023-05-02T09:56:56.918Z,30.54
2023-05-02T10:01:20.137Z,30.62
2023-05-02T10:05:40.701Z,29.83
2023-05-02T10:09:58.805Z,31.62
2023-05-02T10:14:16.701Z,31.02
2023-05-02T10:18:45.292Z,30.34
2023-05-02T10:23:04.769Z,30.29
2023-05-02T10:27:21.631Z,29.35
2023-05-02T10:31:39.969Z,31.26
2023-05-02T10:35:56.301Z,30.24
2023-05-02T10:40:13.853Z,29.74
2023-05-02T10:44:37.888Z,29.52
2023-05-02T10:49:04.537Z,31.77
2023-05-02T10:53:33.906Z,32.47
2023-05-02T10:58:01.716Z,31.92
2023-05-02T11:02:24.300Z,31.89
2023-05-02T11:07:01.466Z,31.29
2023-05-02T11:11:43.829Z,31.73
2023-05-02T11:16:00.358Z,31.39
2023-05-02T11:20:19.786Z,28.99
2023-05-02T11:24:43.080Z,28.91
2023-05-02T11:28:59.326Z,32.45
2023-05-02T11:33:17.769Z,30.71
2023-05-02T11:37:34.341Z,28.48
2023-05-02T11:41:51.301Z,29.07
2023-05-02T11:46:07.900Z,28.87
2023-05-02T11:50:25.844Z,28.90
2023-05-02T11:54:42.152Z,28.19
2023-05-02T11:59:04.549Z,29.34
2023-05-02T12:03:33.323Z,28.94
2023-05-02T12:07:49.677Z,28.81
2023-05-02T12:12:06.103Z,28.25
2023-05-02T12:16:22.506Z,28.17
2023-05-02T12:20:39.558Z,27.50
2023-05-02T12:24:56.228Z,28.26
2023-05-02T12:29:12.903Z,25.74
2023-05-02T12:33:29.152Z,25.99
2023-05-02T12:37:47.324Z,26.62
2023-05-02T12:42:17.977Z,26.10
2023-05-02T12:46:34.371Z,26.30
2023-05-02T12:50:51.446Z,26.40
2023-05-02T12:55:37.152Z,26.58
2023-05-02T12:59:57.082Z,27.44
2023-05-02T13:04:13.566Z,27.29
2023-05-02T13:08:30.075Z,27.26
2023-05-02T13:12:47.043Z,27.24
2023-05-02T13:17:04.300Z,28.30
2023-05-02T13:21:20.658Z,28.24
2023-05-02T13:25:36.971Z,28.46
2023-05-02T13:29:53.236Z,29.76
2023-05-02T13:34:09.470Z,29.98
2023-05-02T13:38:26.260Z,31.01
2023-05-02T13:42:42.629Z,30.77
2023-05-02T13:46:58.860Z,30.90
2023-05-02T13:51:15.024Z,30.92
2023-05-02T13:55:31.396Z,31.01
2023-05-02T13:59:47.595Z,31.10
2023-05-02T14:04:09.115Z,30.78
2023-05-02T14:08:25.860Z,31.05
2023-05-02T14:12:42.271Z,30.70
2023-05-02T14:17:00.573Z,30.71
2023-05-02T14:21:17.504Z,30.52
2023-05-02T14:25:33.870Z,29.79
2023-05-02T14:29:50.182Z,30.43
2023-05-02T14:34:08.797Z,30.59
2023-05-02T14:38:25.310Z,31.96
2023-05-02T14:42:42.393Z,31.66
2023-05-02T14:46:58.943Z,31.30
2023-05-02T14:51:15.678Z,30.39
2023-05-02T14:55:36.397Z,29.26
2023-05-02T14:59:53.036Z,29.60
2023-05-02T15:04:09.748Z,30.70
2023-05-02T15:08:27.693Z,33.13
2023-05-02T15:12:44.055Z,33.78
2023-05-02T15:17:00.580Z,35.34
2023-05-02T15:21:17.151Z,35.24
2023-05-02T15:25:33.934Z,32.98
2023-05-02T15:29:50.243Z,32.11
2023-05-02T15:34:06.588Z,31.50
2023-05-02T15:38:22.876Z,34.43
2023-05-02T15:42:39.131Z,34.98
2023-05-02T15:46:56.192Z,34.46
2023-05-02T15:51:13.820Z,35.79
2023-05-02T15:55:31.254Z,38.00
2023-05-02T15:59:47.448Z,39.01
2023-05-02T16:04:06.450Z,39.57
2023-05-02T16:08:22.710Z,39.44
2023-05-02T16:12:38.970Z,39.07
2023-05-02T16:16:56.500Z,39.44
2023-05-02T16:21:12.896Z,40.50
2023-05-02T16:25:29.296Z,41.75
2023-05-02T16:29:45.588Z,44.36
2023-05-02T16:34:03.215Z,44.93
2023-05-02T16:38:19.470Z,45.17
2023-05-02T16:42:35.913Z,45.73
2023-05-02T16:46:52.714Z,44.88
2023-05-02T16:51:09.156Z,44.73
2023-05-02T16:55:25.446Z,43.67
2023-05-02T16:59:41.952Z,42.86
2023-05-02T17:03:58.294Z,41.45
2023-05-02T17:08:15.086Z,41.89
2023-05-02T17:12:31.945Z,45.79
2023-05-02T17:16:48.273Z,48.01
2023-05-02T17:21:04.719Z,50.80
2023-05-02T17:25:21.087Z,48.98
2023-05-02T17:29:37.708Z,46.91
2023-05-02T17:33:54.043Z,48.26
2023-05-02T17:38:10.238Z,48.55
2023-05-02T17:42:26.527Z,48.53
2023-05-02T17:46:43.365Z,46.39
2023-05-02T17:51:02.544Z,48.45
2023-05-02T17:55:19.192Z,47.98
2023-05-02T17:59:39.201Z,48.63
2023-05-02T18:03:55.481Z,48.78
2023-05-02T18:08:11.945Z,51.01
2023-05-02T18:12:28.528Z,51.83
2023-05-02T18:16:48.767Z,51.56
2023-05-02T18:21:06.376Z,54.98
2023-05-02T18:25:22.577Z,56.05
2023-05-02T18:29:38.747Z,55.73
2023-05-02T18:33:55.108Z,55.58
2023-05-02T18:38:11.763Z,55.08
2023-05-02T18:42:28.400Z,55.90
2023-05-02T18:46:44.655Z,56.17
2023-05-02T18:51:01.551Z,55.79
2023-05-02T18:55:18.587Z,55.43
2023-05-02T18:59:34.832Z,55.40
2023-05-02T19:03:52.949Z,56.46
2023-05-02T19:08:09.809Z,60.30
2023-05-02T19:12:26.104Z,62.38
2023-05-02T19:16:42.329Z,58.97
2023-05-02T19:20:58.820Z,60.99
2023-05-02T19:25:16.015Z,60.39
2023-05-02T19:29:32.166Z,61.20
2023-05-02T19:33:52.205Z,60.08
2023-05-02T19:38:08.519Z,60.06
2023-05-02T19:42:24.677Z,60.88
2023-05-02T19:46:41.068Z,62.18
2023-05-02T19:50:57.364Z,61.60
2023-05-02T19:55:13.819Z,60.47
2023-05-02T19:59:30.460Z,60.64
2023-05-02T20:03:48.359Z,62.01
2023-05-02T20:08:04.704Z,60.82
2023-05-02T20:12:21.823Z,60.31
2023-05-02T20:16:38.351Z,60.10
2023-05-02T20:20:55.048Z,61.84
2023-05-02T20:25:12.120Z,64.84
2023-05-02T20:29:28.363Z,63.34
2023-05-02T20:33:46.029Z,62.94
2023-05-02T20:38:02.500Z,63.17
2023-05-02T20:42:23.484Z,62.92
2023-05-02T20:46:39.794Z,61.66
2023-05-02T20:50:56.204Z,62.48
2023-05-02T20:55:12.680Z,63.87
2023-05-02T20:59:28.943Z,63.18
2023-05-02T21:03:45.407Z,63.20
2023-05-02T21:08:01.813Z,62.28
2023-05-02T21:12:18.333Z,63.92
2023-05-02T21:16:34.772Z,64.85
2023-05-02T21:20:51.153Z,65.09
2023-05-02T21:25:07.652Z,64.67
2023-05-02T21:29:23.822Z,64.81
2023-05-02T21:33:41.626Z,66.34
2023-05-02T21:37:57.929Z,66.73
2023-05-02T21:42:14.156Z,67.35
2023-05-02T21:46:30.394Z,66.58
2023-05-02T21:50:46.792Z,65.16
2023-05-02T21:55:03.175Z,66.19
2023-05-02T21:59:19.632Z,65.73
2023-05-02T22:03:36.866Z,66.66
2023-05-02T22:07:53.280Z,67.33
2023-05-02T22:12:09.626Z,68.70
2023-05-02T22:16:26.622Z,69.19
2023-05-02T22:20:43.709Z,68.76
2023-05-02T22:25:00.527Z,69.05
2023-05-02T22:29:16.913Z,69.55
2023-05-02T22:33:33.258Z,69.04
2023-05-02T22:37:50.168Z,68.15
2023-05-02T22:42:06.556Z,67.82
2023-05-02T22:46:22.896Z,69.79
2023-05-02T22:50:39.145Z,69.04
2023-05-02T22:54:55.607Z,68.91
2023-05-02T22:59:11.958Z,68.54
2023-05-02T23:03:28.319Z,68.62
2023-05-02T23:07:44.995Z,68.23
2023-05-02T23:12:06.024Z,68.01
2023-05-02T23:16:22.369Z,67.49
2023-05-02T23:20:38.694Z,67.54
2023-05-02T23:24:55.024Z,67.41
2023-05-02T23:29:12.616Z,67.25
2023-05-02T23:33:29.850Z,67.47
2023-05-02T23:37:46.208Z,67.71
2023-05-02T23:42:03.956Z,66.98
2023-05-02T23:46:20.288Z,66.53
2023-05-02T23:50:36.754Z,66.58
2023-05-02T23:54:53.070Z,66.64
2023-05-02T23:59:09.524Z,66.22
